sensor_id;sensor_type;location;lat;lon;timestamp;temperature;humidity
12849;DHT22;6493;50.928;7.172;2023-08-30T00:04:38;12.90;58.80
12849;DHT22;6493;50.928;7.172;2023-08-30T00:09:42;12.80;58.70
12849;DHT22;6493;50.928;7.172;2023-08-30T00:14:45;12.80;58.70
12849;DHT22;6493;50.928;7.172;2023-08-30T00:19:50;12.70;58.70
12849;DHT22;6493;50.928;7.172;2023-08-30T00:24:55;12.70;58.80
12849;DHT22;6493;50.928;7.172;2023-08-30T00:29:58;12.60;58.80
12849;DHT22;6493;50.928;7.172;2023-08-30T00:35:05;12.60;58.90
12849;DHT22;6493;50.928;7.172;2023-08-30T00:40:09;12.60;59.00
12849;DHT22;6493;50.928;7.172;2023-08-30T00:45:13;12.50;58.90
12849;DHT22;6493;50.928;7.172;2023-08-30T00:50:18;12.50;59.50
12849;DHT22;6493;50.928;7.172;2023-08-30T00:55:21;12.50;59.60
12849;DHT22;6493;50.928;7.172;2023-08-30T01:00:25;12.40;59.00
12849;DHT22;6493;50.928;7.172;2023-08-30T01:05:31;12.40;59.70
12849;DHT22;6493;50.928;7.172;2023-08-30T01:10:53;12.30;59.20
12849;DHT22;6493;50.928;7.172;2023-08-30T01:15:59;12.30;59.50
12849;DHT22;6493;50.928;7.172;2023-08-30T01:21:09;12.30;59.30
12849;DHT22;6493;50.928;7.172;2023-08-30T01:26:20;12.30;59.50
12849;DHT22;6493;50.928;7.172;2023-08-30T01:31:29;12.30;59.60
12849;DHT22;6493;50.928;7.172;2023-08-30T01:36:36;12.30;59.60
12849;DHT22;6493;50.928;7.172;2023-08-30T01:41:40;12.30;59.50
12849;DHT22;6493;50.928;7.172;2023-08-30T01:46:46;12.30;59.60
12849;DHT22;6493;50.928;7.172;2023-08-30T01:51:51;12.30;59.70
12849;DHT22;6493;50.928;7.172;2023-08-30T01:56:55;12.30;59.70
12849;DHT22;6493;50.928;7.172;2023-08-30T02:02:01;12.30;59.70
12849;DHT22;6493;50.928;7.172;2023-08-30T02:07:13;12.30;59.70
12849;DHT22;6493;50.928;7.172;2023-08-30T02:12:18;12.20;59.70
12849;DHT22;6493;50.928;7.172;2023-08-30T02:17:24;12.20;59.70
12849;DHT22;6493;50.928;7.172;2023-08-30T02:22:29;12.20;59.80
12849;DHT22;6493;50.928;7.172;2023-08-30T02:27:34;12.20;59.80
12849;DHT22;6493;50.928;7.172;2023-08-30T02:32:39;12.20;59.90
12849;DHT22;6493;50.928;7.172;2023-08-30T02:37:43;12.20;60.00
12849;DHT22;6493;50.928;7.172;2023-08-30T02:42:47;12.20;60.00
12849;DHT22;6493;50.928;7.172;2023-08-30T02:47:55;12.20;60.10
12849;DHT22;6493;50.928;7.172;2023-08-30T02:52:59;12.20;60.30
12849;DHT22;6493;50.928;7.172;2023-08-30T02:58:03;12.20;60.20
12849;DHT22;6493;50.928;7.172;2023-08-30T03:03:08;12.20;60.20
12849;DHT22;6493;50.928;7.172;2023-08-30T03:08:11;12.20;60.30
12849;DHT22;6493;50.928;7.172;2023-08-30T03:13:15;12.10;60.20
12849;DHT22;6493;50.928;7.172;2023-08-30T03:18:20;12.10;60.20
12849;DHT22;6493;50.928;7.172;2023-08-30T03:23:24;12.10;60.30
12849;DHT22;6493;50.928;7.172;2023-08-30T03:28:28;12.10;60.40
12849;DHT22;6493;50.928;7.172;2023-08-30T03:33:33;12.00;60.30
12849;DHT22;6493;50.928;7.172;2023-08-30T03:38:37;12.00;60.50
12849;DHT22;6493;50.928;7.172;2023-08-30T03:43:40;12.00;60.40
12849;DHT22;6493;50.928;7.172;2023-08-30T03:48:46;12.00;60.40
12849;DHT22;6493;50.928;7.172;2023-08-30T03:53:49;11.90;60.30
12849;DHT22;6493;50.928;7.172;2023-08-30T03:58:55;11.90;60.30
12849;DHT22;6493;50.928;7.172;2023-08-30T04:04:00;11.90;60.30
12849;DHT22;6493;50.928;7.172;2023-08-30T04:09:04;11.80;60.30
12849;DHT22;6493;50.928;7.172;2023-08-30T04:14:07;11.80;60.20
12849;DHT22;6493;50.928;7.172;2023-08-30T04:19:12;11.70;60.10
12849;DHT22;6493;50.928;7.172;2023-08-30T04:24:16;11.70;60.30
12849;DHT22;6493;50.928;7.172;2023-08-30T04:29:20;11.50;60.00
12849;DHT22;6493;50.928;7.172;2023-08-30T04:34:26;11.50;60.10
12849;DHT22;6493;50.928;7.172;2023-08-30T04:39:31;11.40;60.20
12849;DHT22;6493;50.928;7.172;2023-08-30T04:44:36;11.30;60.20
12849;DHT22;6493;50.928;7.172;2023-08-30T04:49:43;11.30;60.30
12849;DHT22;6493;50.928;7.172;2023-08-30T04:54:47;11.20;60.30
12849;DHT22;6493;50.928;7.172;2023-08-30T04:59:51;11.20;60.40
12849;DHT22;6493;50.928;7.172;2023-08-30T05:04:56;11.10;60.30
12849;DHT22;6493;50.928;7.172;2023-08-30T05:10:00;11.10;60.50
12849;DHT22;6493;50.928;7.172;2023-08-30T05:15:05;11.10;60.50
12849;DHT22;6493;50.928;7.172;2023-08-30T05:20:11;11.00;60.60
12849;DHT22;6493;50.928;7.172;2023-08-30T05:25:15;11.00;60.80
12849;DHT22;6493;50.928;7.172;2023-08-30T05:30:18;11.00;60.80
12849;DHT22;6493;50.928;7.172;2023-08-30T05:35:23;11.00;60.90
12849;DHT22;6493;50.928;7.172;2023-08-30T05:40:44;11.00;61.10
12849;DHT22;6493;50.928;7.172;2023-08-30T05:45:47;11.00;61.10
12849;DHT22;6493;50.928;7.172;2023-08-30T05:50:52;11.10;61.30
12849;DHT22;6493;50.928;7.172;2023-08-30T05:55:56;11.10;61.30
12849;DHT22;6493;50.928;7.172;2023-08-30T06:01:00;11.20;61.40
12849;DHT22;6493;50.928;7.172;2023-08-30T06:06:08;11.20;61.50
12849;DHT22;6493;50.928;7.172;2023-08-30T06:11:12;11.20;61.60
12849;DHT22;6493;50.928;7.172;2023-08-30T06:16:16;11.30;61.60
12849;DHT22;6493;50.928;7.172;2023-08-30T06:21:21;11.30;61.60
12849;DHT22;6493;50.928;7.172;2023-08-30T06:26:24;11.40;61.90
12849;DHT22;6493;50.928;7.172;2023-08-30T06:31:28;11.40;61.80
12849;DHT22;6493;50.928;7.172;2023-08-30T06:36:33;11.50;62.10
12849;DHT22;6493;50.928;7.172;2023-08-30T06:41:37;11.50;62.00
12849;DHT22;6493;50.928;7.172;2023-08-30T06:46:41;11.60;62.20
12849;DHT22;6493;50.928;7.172;2023-08-30T06:51:46;11.70;62.60
12849;DHT22;6493;50.928;7.172;2023-08-30T06:56:59;11.70;62.70
12849;DHT22;6493;50.928;7.172;2023-08-30T07:02:03;11.80;62.90
12849;DHT22;6493;50.928;7.172;2023-08-30T07:07:09;11.90;63.00
12849;DHT22;6493;50.928;7.172;2023-08-30T07:12:13;11.90;63.00
12849;DHT22;6493;50.928;7.172;2023-08-30T07:17:16;12.00;63.30
12849;DHT22;6493;50.928;7.172;2023-08-30T07:22:21;12.20;63.60
12849;DHT22;6493;50.928;7.172;2023-08-30T07:27:25;12.40;63.80
12849;DHT22;6493;50.928;7.172;2023-08-30T07:32:30;12.50;63.80
12849;DHT22;6493;50.928;7.172;2023-08-30T07:37:35;12.70;63.60
12849;DHT22;6493;50.928;7.172;2023-08-30T07:42:39;12.80;63.90
12849;DHT22;6493;50.928;7.172;2023-08-30T07:47:43;13.00;63.60
12849;DHT22;6493;50.928;7.172;2023-08-30T07:52:48;13.10;63.60
12849;DHT22;6493;50.928;7.172;2023-08-30T07:57:51;13.40;64.10
12849;DHT22;6493;50.928;7.172;2023-08-30T08:02:55;13.90;64.90
12849;DHT22;6493;50.928;7.172;2023-08-30T08:08:00;14.20;63.90
12849;DHT22;6493;50.928;7.172;2023-08-30T08:13:05;14.40;63.20
12849;DHT22;6493;50.928;7.172;2023-08-30T08:18:09;14.60;63.50
12849;DHT22;6493;50.928;7.172;2023-08-30T08:23:15;14.90;63.60
12849;DHT22;6493;50.928;7.172;2023-08-30T08:28:18;15.20;63.00
12849;DHT22;6493;50.928;7.172;2023-08-30T08:33:22;15.50;63.20
12849;DHT22;6493;50.928;7.172;2023-08-30T08:38:27;15.60;61.00
12849;DHT22;6493;50.928;7.172;2023-08-30T08:43:33;15.80;60.10
12849;DHT22;6493;50.928;7.172;2023-08-30T08:48:40;15.90;60.80
12849;DHT22;6493;50.928;7.172;2023-08-30T08:53:45;16.00;60.50
12849;DHT22;6493;50.928;7.172;2023-08-30T08:58:49;16.10;60.70
12849;DHT22;6493;50.928;7.172;2023-08-30T09:03:53;16.20;60.20
12849;DHT22;6493;50.928;7.172;2023-08-30T09:08:59;16.40;59.70
12849;DHT22;6493;50.928;7.172;2023-08-30T09:14:02;16.50;59.70
12849;DHT22;6493;50.928;7.172;2023-08-30T09:19:06;16.60;59.90
12849;DHT22;6493;50.928;7.172;2023-08-30T09:24:14;16.80;59.10
12849;DHT22;6493;50.928;7.172;2023-08-30T09:29:18;17.00;59.30
12849;DHT22;6493;50.928;7.172;2023-08-30T09:34:23;17.10;58.30
12849;DHT22;6493;50.928;7.172;2023-08-30T09:39:28;17.10;58.10
12849;DHT22;6493;50.928;7.172;2023-08-30T09:44:32;17.20;57.70
12849;DHT22;6493;50.928;7.172;2023-08-30T09:49:42;17.40;57.30
12849;DHT22;6493;50.928;7.172;2023-08-30T09:54:47;17.40;57.40
12849;DHT22;6493;50.928;7.172;2023-08-30T09:59:51;17.30;57.30
12849;DHT22;6493;50.928;7.172;2023-08-30T10:04:55;17.10;57.30
12849;DHT22;6493;50.928;7.172;2023-08-30T10:10:02;17.00;57.30
12849;DHT22;6493;50.928;7.172;2023-08-30T10:15:11;16.80;57.20
12849;DHT22;6493;50.928;7.172;2023-08-30T10:20:15;16.70;57.30
12849;DHT22;6493;50.928;7.172;2023-08-30T10:25:22;16.50;57.40
12849;DHT22;6493;50.928;7.172;2023-08-30T10:30:28;16.40;57.60
12849;DHT22;6493;50.928;7.172;2023-08-30T10:35:32;16.30;57.70
12849;DHT22;6493;50.928;7.172;2023-08-30T10:40:47;16.20;57.80
12849;DHT22;6493;50.928;7.172;2023-08-30T10:45:59;16.10;57.90
12849;DHT22;6493;50.928;7.172;2023-08-30T10:51:04;16.00;58.10
12849;DHT22;6493;50.928;7.172;2023-08-30T10:56:13;15.80;58.00
12849;DHT22;6493;50.928;7.172;2023-08-30T11:01:19;15.60;58.00
12849;DHT22;6493;50.928;7.172;2023-08-30T11:06:23;15.50;58.30
12849;DHT22;6493;50.928;7.172;2023-08-30T11:11:28;15.40;58.70
12849;DHT22;6493;50.928;7.172;2023-08-30T11:16:33;15.30;58.80
12849;DHT22;6493;50.928;7.172;2023-08-30T11:21:38;15.30;59.10
12849;DHT22;6493;50.928;7.172;2023-08-30T11:26:43;15.30;59.30
12849;DHT22;6493;50.928;7.172;2023-08-30T11:31:46;15.40;59.50
12849;DHT22;6493;50.928;7.172;2023-08-30T11:36:52;15.40;59.20
12849;DHT22;6493;50.928;7.172;2023-08-30T11:41:57;15.30;58.80
12849;DHT22;6493;50.928;7.172;2023-08-30T11:47:18;15.20;59.00
12849;DHT22;6493;50.928;7.172;2023-08-30T11:52:23;15.20;59.20
12849;DHT22;6493;50.928;7.172;2023-08-30T11:57:28;15.00;59.00
12849;DHT22;6493;50.928;7.172;2023-08-30T12:02:36;14.80;59.00
12849;DHT22;6493;50.928;7.172;2023-08-30T12:07:41;14.60;59.10
12849;DHT22;6493;50.928;7.172;2023-08-30T12:12:46;14.50;59.50
12849;DHT22;6493;50.928;7.172;2023-08-30T12:17:50;14.40;59.80
12849;DHT22;6493;50.928;7.172;2023-08-30T12:22:53;14.30;59.80
12849;DHT22;6493;50.928;7.172;2023-08-30T12:27:58;14.30;59.90
12849;DHT22;6493;50.928;7.172;2023-08-30T12:33:02;14.30;60.30
12849;DHT22;6493;50.928;7.172;2023-08-30T12:38:06;14.20;60.20
12849;DHT22;6493;50.928;7.172;2023-08-30T12:43:13;14.20;60.40
12849;DHT22;6493;50.928;7.172;2023-08-30T12:48:17;14.20;60.60
12849;DHT22;6493;50.928;7.172;2023-08-30T12:53:21;14.20;60.70
12849;DHT22;6493;50.928;7.172;2023-08-30T12:58:26;14.20;60.60
12849;DHT22;6493;50.928;7.172;2023-08-30T13:03:30;14.20;60.70
12849;DHT22;6493;50.928;7.172;2023-08-30T13:08:35;14.10;60.70
12849;DHT22;6493;50.928;7.172;2023-08-30T13:13:40;14.00;60.70
12849;DHT22;6493;50.928;7.172;2023-08-30T13:18:43;13.90;60.60
12849;DHT22;6493;50.928;7.172;2023-08-30T13:23:47;13.80;60.80
12849;DHT22;6493;50.928;7.172;2023-08-30T13:28:54;13.70;60.70
12849;DHT22;6493;50.928;7.172;2023-08-30T13:33:59;13.70;61.90
12849;DHT22;6493;50.928;7.172;2023-08-30T13:39:03;13.60;61.10
12849;DHT22;6493;50.928;7.172;2023-08-30T13:44:08;13.60;61.30
12849;DHT22;6493;50.928;7.172;2023-08-30T13:49:12;13.50;61.40
12849;DHT22;6493;50.928;7.172;2023-08-30T13:54:16;13.60;61.70
12849;DHT22;6493;50.928;7.172;2023-08-30T13:59:21;13.60;61.80
12849;DHT22;6493;50.928;7.172;2023-08-30T14:04:24;13.60;61.90
12849;DHT22;6493;50.928;7.172;2023-08-30T14:09:28;13.60;61.90
12849;DHT22;6493;50.928;7.172;2023-08-30T14:14:33;13.60;62.00
12849;DHT22;6493;50.928;7.172;2023-08-30T14:19:37;13.60;62.00
12849;DHT22;6493;50.928;7.172;2023-08-30T14:24:41;13.50;61.80
12849;DHT22;6493;50.928;7.172;2023-08-30T14:30:09;13.50;62.00
12849;DHT22;6493;50.928;7.172;2023-08-30T14:35:12;13.40;61.90
12849;DHT22;6493;50.928;7.172;2023-08-30T14:40:16;13.40;61.90
12849;DHT22;6493;50.928;7.172;2023-08-30T14:45:22;13.40;61.90
12849;DHT22;6493;50.928;7.172;2023-08-30T14:50:25;13.30;61.80
12849;DHT22;6493;50.928;7.172;2023-08-30T14:55:29;13.30;61.80
12849;DHT22;6493;50.928;7.172;2023-08-30T15:00:34;13.20;61.70
12849;DHT22;6493;50.928;7.172;2023-08-30T15:05:38;13.10;61.70
12849;DHT22;6493;50.928;7.172;2023-08-30T15:10:41;13.00;62.00
12849;DHT22;6493;50.928;7.172;2023-08-30T15:15:47;13.00;62.40
12849;DHT22;6493;50.928;7.172;2023-08-30T15:20:51;13.00;62.70
12849;DHT22;6493;50.928;7.172;2023-08-30T15:25:55;13.10;62.80
12849;DHT22;6493;50.928;7.172;2023-08-30T15:31:00;13.20;63.10
12849;DHT22;6493;50.928;7.172;2023-08-30T15:36:05;13.30;63.10
12849;DHT22;6493;50.928;7.172;2023-08-30T15:41:09;13.40;63.10
12849;DHT22;6493;50.928;7.172;2023-08-30T15:46:14;13.40;63.00
12849;DHT22;6493;50.928;7.172;2023-08-30T15:51:18;13.40;63.30
12849;DHT22;6493;50.928;7.172;2023-08-30T15:56:26;13.50;63.50
12849;DHT22;6493;50.928;7.172;2023-08-30T16:01:31;13.60;63.70
12849;DHT22;6493;50.928;7.172;2023-08-30T16:06:35;13.70;63.70
12849;DHT22;6493;50.928;7.172;2023-08-30T16:11:39;13.70;63.30
12849;DHT22;6493;50.928;7.172;2023-08-30T16:16:44;13.80;63.40
12849;DHT22;6493;50.928;7.172;2023-08-30T16:21:47;13.80;63.10
12849;DHT22;6493;50.928;7.172;2023-08-30T16:26:54;13.80;63.10
12849;DHT22;6493;50.928;7.172;2023-08-30T16:32:00;13.80;63.20
12849;DHT22;6493;50.928;7.172;2023-08-30T16:37:03;13.80;63.30
12849;DHT22;6493;50.928;7.172;2023-08-30T16:42:07;13.80;63.10
12849;DHT22;6493;50.928;7.172;2023-08-30T16:47:12;13.70;62.90
12849;DHT22;6493;50.928;7.172;2023-08-30T16:52:16;13.60;63.00
12849;DHT22;6493;50.928;7.172;2023-08-30T16:57:20;13.60;63.00
12849;DHT22;6493;50.928;7.172;2023-08-30T17:02:29;13.50;63.00
12849;DHT22;6493;50.928;7.172;2023-08-30T17:07:32;13.50;63.20
12849;DHT22;6493;50.928;7.172;2023-08-30T17:12:36;13.50;63.10
12849;DHT22;6493;50.928;7.172;2023-08-30T17:17:41;13.40;63.10
12849;DHT22;6493;50.928;7.172;2023-08-30T17:22:45;13.30;63.00
12849;DHT22;6493;50.928;7.172;2023-08-30T17:27:49;13.30;63.10
12849;DHT22;6493;50.928;7.172;2023-08-30T17:32:54;13.20;63.10
12849;DHT22;6493;50.928;7.172;2023-08-30T17:38:00;13.20;63.40
12849;DHT22;6493;50.928;7.172;2023-08-30T17:43:06;13.20;63.50
12849;DHT22;6493;50.928;7.172;2023-08-30T17:48:11;13.10;63.40
12849;DHT22;6493;50.928;7.172;2023-08-30T17:53:15;13.10;63.50
12849;DHT22;6493;50.928;7.172;2023-08-30T17:58:19;13.10;63.50
12849;DHT22;6493;50.928;7.172;2023-08-30T18:03:24;13.10;63.60
12849;DHT22;6493;50.928;7.172;2023-08-30T18:08:31;13.10;63.70
12849;DHT22;6493;50.928;7.172;2023-08-30T18:13:35;13.10;63.70
12849;DHT22;6493;50.928;7.172;2023-08-30T18:18:41;13.10;63.80
12849;DHT22;6493;50.928;7.172;2023-08-30T18:24:12;13.10;63.80
12849;DHT22;6493;50.928;7.172;2023-08-30T18:29:17;13.10;64.20
12849;DHT22;6493;50.928;7.172;2023-08-30T18:34:23;13.00;63.70
12849;DHT22;6493;50.928;7.172;2023-08-30T18:39:27;13.00;63.70
12849;DHT22;6493;50.928;7.172;2023-08-30T18:44:30;13.00;63.60
12849;DHT22;6493;50.928;7.172;2023-08-30T18:49:36;12.90;63.50
12849;DHT22;6493;50.928;7.172;2023-08-30T18:54:41;12.80;63.40
12849;DHT22;6493;50.928;7.172;2023-08-30T18:59:46;12.80;63.30
12849;DHT22;6493;50.928;7.172;2023-08-30T19:04:52;12.70;63.30
12849;DHT22;6493;50.928;7.172;2023-08-30T19:09:56;12.60;63.30
12849;DHT22;6493;50.928;7.172;2023-08-30T19:14:59;12.60;63.40
12849;DHT22;6493;50.928;7.172;2023-08-30T19:20:07;12.50;63.30
12849;DHT22;6493;50.928;7.172;2023-08-30T19:25:10;12.40;63.40
12849;DHT22;6493;50.928;7.172;2023-08-30T19:30:18;12.40;63.40
12849;DHT22;6493;50.928;7.172;2023-08-30T19:35:23;12.30;63.30
12849;DHT22;6493;50.928;7.172;2023-08-30T19:40:27;12.20;63.30
12849;DHT22;6493;50.928;7.172;2023-08-30T19:45:30;12.20;63.30
12849;DHT22;6493;50.928;7.172;2023-08-30T19:50:36;12.10;63.20
12849;DHT22;6493;50.928;7.172;2023-08-30T19:55:40;12.00;63.20
12849;DHT22;6493;50.928;7.172;2023-08-30T20:00:43;11.90;63.10
12849;DHT22;6493;50.928;7.172;2023-08-30T20:05:51;11.80;63.10
12849;DHT22;6493;50.928;7.172;2023-08-30T20:11:00;11.80;63.10
12849;DHT22;6493;50.928;7.172;2023-08-30T20:16:05;11.70;63.10
12849;DHT22;6493;50.928;7.172;2023-08-30T20:21:14;11.60;62.80
12849;DHT22;6493;50.928;7.172;2023-08-30T20:26:18;11.50;62.90
12849;DHT22;6493;50.928;7.172;2023-08-30T20:31:23;11.40;62.80
12849;DHT22;6493;50.928;7.172;2023-08-30T20:36:28;11.40;62.90
12849;DHT22;6493;50.928;7.172;2023-08-30T20:41:41;11.30;62.90
12849;DHT22;6493;50.928;7.172;2023-08-30T20:46:45;11.20;62.80
12849;DHT22;6493;50.928;7.172;2023-08-30T20:51:50;11.10;62.70
12849;DHT22;6493;50.928;7.172;2023-08-30T20:56:53;11.10;62.80
12849;DHT22;6493;50.928;7.172;2023-08-30T21:01:57;11.00;62.70
12849;DHT22;6493;50.928;7.172;2023-08-30T21:07:02;11.00;62.80
12849;DHT22;6493;50.928;7.172;2023-08-30T21:12:06;10.90;62.80
12849;DHT22;6493;50.928;7.172;2023-08-30T21:17:10;10.80;62.70
12849;DHT22;6493;50.928;7.172;2023-08-30T21:22:15;10.80;63.50
12849;DHT22;6493;50.928;7.172;2023-08-30T21:27:19;10.70;62.80
12849;DHT22;6493;50.928;7.172;2023-08-30T21:32:22;10.60;62.60
12849;DHT22;6493;50.928;7.172;2023-08-30T21:37:27;10.60;63.40
12849;DHT22;6493;50.928;7.172;2023-08-30T21:42:31;10.50;62.70
12849;DHT22;6493;50.928;7.172;2023-08-30T21:47:35;10.50;62.80
12849;DHT22;6493;50.928;7.172;2023-08-30T21:52:41;10.40;62.70
12849;DHT22;6493;50.928;7.172;2023-08-30T21:57:45;10.40;62.80
12849;DHT22;6493;50.928;7.172;2023-08-30T22:02:49;10.40;62.90
12849;DHT22;6493;50.928;7.172;2023-08-30T22:07:54;10.30;62.80
12849;DHT22;6493;50.928;7.172;2023-08-30T22:12:58;10.30;62.90
12849;DHT22;6493;50.928;7.172;2023-08-30T22:18:02;10.30;62.90
12849;DHT22;6493;50.928;7.172;2023-08-30T22:23:08;10.20;62.90
12849;DHT22;6493;50.928;7.172;2023-08-30T22:28:12;10.20;63.00
12849;DHT22;6493;50.928;7.172;2023-08-30T22:33:15;10.20;63.00
12849;DHT22;6493;50.928;7.172;2023-08-30T22:38:21;10.20;63.10
12849;DHT22;6493;50.928;7.172;2023-08-30T22:43:25;10.20;63.20
12849;DHT22;6493;50.928;7.172;2023-08-30T22:48:28;10.20;63.20
12849;DHT22;6493;50.928;7.172;2023-08-30T22:53:34;10.20;63.30
12849;DHT22;6493;50.928;7.172;2023-08-30T22:58:37;10.20;63.50
12849;DHT22;6493;50.928;7.172;2023-08-30T23:03:41;10.20;63.50
12849;DHT22;6493;50.928;7.172;2023-08-30T23:08:46;10.20;64.30
12849;DHT22;6493;50.928;7.172;2023-08-30T23:13:50;10.20;63.70
12849;DHT22;6493;50.928;7.172;2023-08-30T23:18:53;10.20;63.80
12849;DHT22;6493;50.928;7.172;2023-08-30T23:23:59;10.20;63.90
12849;DHT22;6493;50.928;7.172;2023-08-30T23:29:02;10.20;63.90
12849;DHT22;6493;50.928;7.172;2023-08-30T23:34:07;10.20;64.00
12849;DHT22;6493;50.928;7.172;2023-08-30T23:39:13;10.20;63.90
12849;DHT22;6493;50.928;7.172;2023-08-30T23:44:17;10.20;63.90
12849;DHT22;6493;50.928;7.172;2023-08-30T23:49:21;10.20;63.90
12849;DHT22;6493;50.928;7.172;2023-08-30T23:54:26;10.20;63.90
12849;DHT22;6493;50.928;7.172;2023-08-30T23:59:30;10.20;63.90
